Detall de PIREP

Printer-friendly versionPDF version

[2012/02/23 09:00:00]
Flight IATA:CT2102
Pilot Number:041
Company ICAO:CAT
Aircraft Type:A320/E
PAX:61
Departing Airport: LEVC
Destination Airport: LEBZ
Alternate Airport:LEMG
Online: VATSIM
Route:CLS UN733 CJN UN975 CCS
Flight Level:F270
No Slew and time accel
No pause
Crash detect
Detect pilot in Cockpit between each 30 and 45 minutes
09:00 Zero fuel Weight: 79433 Lbs, Fuel Weight: 12341 Lbs
09:00 VATSIM:LEVC 230830Z 25003KT 220V280 CAVOK 08/M07 Q1028 NOSIG
09:00 VATSIM:LEBZ 230800Z VRB01KT CAVOK M00/M04 Q1029
09:00 VOICE CATALONIAN
09:08 Parking Brakes off
09:12 Take-off
09:12 Take off Weight: 91450 Lbs
09:12 Wind: 276º @ 004 Knots Heading: 294º
09:12 POS N39º 29´ 29´´ W000º 29´ 16´´
09:12 Gear Up: 162 Knots
09:12 Flaps:2 at 162 Knots
09:12 Flaps:1 at 163 Knots
09:12 Flaps:0 at 167 Knots
09:27 Wind:064º@054 Knots Heading: 305º Ground Speed: 412 Knots Altitude 25039 ft
09:29 TOC
09:29 Fuel Weight: 9503 Lb
09:42 Wind:062º@077 Knots Heading: 257º Ground Speed: 474 Knots Altitude 27519 ft
09:49 TOD
09:49 Fuel Weight: 7745 Lb
09:57 Wind:066º@012 Knots Heading: 174º Ground Speed: 272 Knots Altitude 8241 ft
10:05 Flaps:1 at 239 Knots
10:12 Wind:092º@007 Knots Heading: 098º Ground Speed: 228 Knots Altitude 3517 ft
10:12 Flaps:2 at 229 Knots
10:16 Flaps:3 at 204 Knots
10:16 Gear Down: 194 Knots
10:16 Flaps:4 at 152 Knots
10:16 Flaps:3 at 152 Knots
10:16 Flaps:4 at 151 Knots
10:16 Flaps:3 at 148 Knots
10:16 Flaps:4 at 147 Knots
10:17 Flaps:3 at 140 Knots
10:17 Flaps:4 at 139 Knots
10:17 Flaps:3 at 138 Knots
10:17 Flaps:4 at 137 Knots
10:17 Flaps:3 at 136 Knots
10:17 Flaps:4 at 135 Knots
10:17 Flaps:3 at 135 Knots
10:17 Flaps:4 at 134 Knots
10:17 Flaps:3 at 133 Knots
10:17 Flaps:4 at 132 Knots
10:17 Flaps:3 at 131 Knots
10:17 Flaps:4 at 130 Knots
10:17 Flaps:3 at 130 Knots
10:17 Flaps:4 at 130 Knots
10:17 Flaps:3 at 129 Knots
10:17 Flaps:4 at 129 Knots
10:17 Flaps:3 at 129 Knots
10:17 Flaps:4 at 129 Knots
10:17 Flaps:3 at 130 Knots
10:17 Flaps:4 at 130 Knots
10:17 Flaps:3 at 130 Knots
10:17 Flaps:4 at 130 Knots
10:17 Flaps:3 at 130 Knots
10:17 Flaps:4 at 130 Knots
10:17 Flaps:3 at 129 Knots
10:17 Flaps:4 at 129 Knots
10:17 Flaps:3 at 129 Knots
10:17 Flaps:4 at 129 Knots
10:17 Flaps:3 at 130 Knots
10:17 Flaps:4 at 130 Knots
10:17 Flaps:3 at 129 Knots
10:17 Flaps:4 at 129 Knots
10:17 Flaps:3 at 129 Knots
10:17 Flaps:4 at 129 Knots
10:18 Flaps:3 at 130 Knots
10:18 Flaps:4 at 130 Knots
10:18 Flaps:3 at 130 Knots
10:18 Flaps:4 at 130 Knots
10:18 Flaps:3 at 129 Knots
10:18 Flaps:4 at 129 Knots
10:18 Flaps:3 at 129 Knots
10:18 Flaps:4 at 129 Knots
10:18 Flaps:3 at 128 Knots
10:18 Flaps:4 at 127 Knots
10:18 Flaps:3 at 124 Knots
10:18 Flaps:4 at 124 Knots
10:18 Flaps:3 at 123 Knots
10:18 Flaps:4 at 122 Knots
10:18 Flaps:3 at 122 Knots
10:18 Flaps:4 at 122 Knots
10:18 Flaps:3 at 121 Knots
10:18 Flaps:4 at 121 Knots
10:18 Flaps:3 at 121 Knots
10:18 Flaps:4 at 121 Knots
10:19 Flaps:3 at 121 Knots
10:19 Flaps:4 at 122 Knots
10:19 Flaps:3 at 122 Knots
10:19 Flaps:4 at 122 Knots
10:19 TouchDown:Rate -133 ft/min Speed: 121 Knots
10:19 Flaps:3 at 113 Knots
10:19 Flaps:4 at 108 Knots
10:19 Flaps:3 at 103 Knots
10:19 Flaps:4 at 92 Knots
10:19 Flaps:3 at 86 Knots
10:19 Flaps:4 at 80 Knots
10:19 Flaps:3 at 74 Knots
10:19 Flaps:4 at 68 Knots
10:19 Flaps:3 at 55 Knots
10:19 VATSIM:LEBZ 231000Z 12003KT 080V160 CAVOK 07/M04 Q1030
10:19 Land
10:19 Wind:075º@001 Knots
10:19 Heading: 315º
10:19 Flight Duration: 01:07
10:19 Landing Weight: 85509 Lbs
10:19 POS N38º 53´ 19´´ W006º 48´ 59´´
10:24 Parking brakes on
10:24 Block to Block Duration: 01:16
10:24 Final Fuel: 5895 Lbls
10:24 Spent Fuel: 6446 Lbls
10:24 Flight Length: 381 NM
10:24 TOD Land Length: 130 NM

Exportar CSV

Powered by Drupal - Modified by Danger4k